Quinsam — VY6800 — position and weather

sailwx.info

Track history (hours):
 
Tides and Currents Weather Stations Pressure Air Temp Water Temp Dewpoint Dewpoint Depression Visibility Wind Speed Wind Dir Waves Ship Positions

Quinsam

Last reported at 2014-Oct-31 06:25 UTC. Time now 2014-Oct-31 07:02 UTC.
Position N 49°11' W 123°52'.

Length 88 m; draft 1.5 m.

Type: Ship. MMSI: 316001266.

Date/timePositionNaut miles runAvg speedWind from/ knotsBaromVisibWave heightAir tempDewpointWater temp
2014-Oct-31 06:25N 49°11' W 123°52'0 0.2
2014-Oct-31 05:32N 49°11' W 123°52'1 0.7
2014-Oct-31 03:33N 49°10' W 123°54'0 0.5
2014-Oct-31 02:33N 49°11' W 123°53'0 0.2
2014-Oct-31 01:27N 49°11' W 123°53'0 0.0
2014-Oct-31 00:21N 49°11' W 123°53'0 0.2
2014-Oct-30 23:34N 49°11' W 123°53'2 2.0
2014-Oct-30 22:30N 49°10' W 123°56'2 1.7
2014-Oct-30 21:19N 49°11' W 123°53'0 0.4
2014-Oct-30 20:32N 49°11' W 123°53'2 2.3
2014-Oct-30 19:33N 49°10' W 123°56'1 0.5
2014-Oct-30 18:33N 49°10' W 123°55'1 0.5
2014-Oct-30 17:33N 49°10' W 123°56'0 0.0
2014-Oct-30 16:33N 49°10' W 123°56'2 2.2
2014-Oct-30 15:33N 49°11' W 123°53'1 0.7
2014-Oct-30 14:32N 49°11' W 123°52'1 0.6
2014-Oct-30 13:33N 49°11' W 123°53'0 0.1
2014-Oct-30 12:33N 49°11' W 123°52'1 0.2
2014-Oct-30 10:07N 49°11' W 123°52'0 0.0
2014-Oct-30 09:19N 49°11' W 123°52'0 0.0
2014-Oct-30 08:31N 49°11' W 123°52'0 0.0
2014-Oct-30 07:19N 49°11' W 123°52'0 0.0
2014-Oct-30 06:33N 49°11' W 123°52'3 2.7
2014-Oct-30 05:28N 49°10' W 123°56'3 3.2
2014-Oct-30 04:33N 49°11' W 123°52'1 1.5
2014-Oct-30 03:32N 49°11' W 123°54'0 0.2
2014-Oct-30 02:34N 49°10' W 123°54'1 1.4
2014-Oct-30 01:33N 49°11' W 123°52'0 0.0
2014-Oct-30 00:34N 49°11' W 123°52'1 1.1
2014-Oct-29 23:34N 49°11' W 123°53'2 1.7
2014-Oct-29 22:30N 49°10' W 123°56'3 2.9
2014-Oct-29 21:29N 49°11' W 123°52'1 1.0
2014-Oct-29 20:33N 49°11' W 123°53'2 1.5
2014-Oct-29 19:20N 49°10' W 123°56'2 2.0
2014-Oct-29 18:31N 49°10' W 123°53'2 1.5
2014-Oct-29 17:25N 49°10' W 123°56'0 0.1
2014-Oct-29 16:11N 49°10' W 123°56'2 2.6
2014-Oct-29 15:29N 49°11' W 123°53'0 0.3
2014-Oct-29 14:17N 49°11' W 123°52'0 0.4
2014-Oct-29 13:11N 49°11' W 123°53'0 0.8
2014-Oct-29 12:33N 49°11' W 123°52'0 0.0
2014-Oct-29 06:21N 49°11' W 123°53'0 0.2
2014-Oct-29 05:21N 49°11' W 123°52'1 0.7
2014-Oct-29 03:30N 49°10' W 123°54'1 0.9
2014-Oct-29 02:33N 49°11' W 123°53'0 0.3
2014-Oct-29 01:22N 49°11' W 123°54'1 0.6
2014-Oct-29 00:17N 49°11' W 123°53'1 0.8
2014-Oct-28 23:33N 49°10' W 123°53'2 1.6
2014-Oct-28 22:33N 49°10' W 123°56'3 2.9
2014-Oct-28 21:33N 49°11' W 123°52'1 0.7
2014-Oct-28 20:34N 49°11' W 123°53'2 2.2
2014-Oct-28 19:33N 49°10' W 123°56'1 0.7
2014-Oct-28 18:34N 49°10' W 123°55'1 0.7
2014-Oct-28 17:33N 49°10' W 123°56'0 0.0
2014-Oct-28 16:33N 49°10' W 123°56'2 1.9
2014-Oct-28 15:34N 49°11' W 123°53'1 1.1
2014-Oct-28 14:33N 49°11' W 123°52'0 0.5
2014-Oct-28 13:33N 49°11' W 123°52'0 0.2
2014-Oct-28 12:34N 49°11' W 123°53'1 0.6
2014-Oct-28 11:32N 49°11' W 123°52'0 0.0
2014-Oct-28 10:32N 49°11' W 123°52'0 0.0
2014-Oct-28 09:32N 49°11' W 123°52'0 0.0
2014-Oct-28 08:32N 49°11' W 123°52'0 0.0
2014-Oct-28 07:32N 49°11' W 123°52'0 0.0
2014-Oct-28 06:32N 49°11' W 123°52'0 0.0
2014-Oct-28 05:33N 49°11' W 123°52'0 0.0
2014-Oct-28 04:33N 49°11' W 123°52'1 1.4
2014-Oct-28 03:33N 49°10' W 123°54'0 0.3
2014-Oct-28 02:33N 49°11' W 123°53'1 1.0
2014-Oct-28 01:33N 49°11' W 123°52'0 0.0
2014-Oct-28 00:33N 49°11' W 123°52'1 0.7
2014-Oct-27 23:33N 49°11' W 123°53'2 2.2
2014-Oct-27 22:33N 49°10' W 123°56'3 2.9
2014-Oct-27 21:34N 49°11' W 123°52'3 2.9
2014-Oct-27 20:34N 49°10' W 123°56'0 0.0
2014-Oct-27 19:33N 49°10' W 123°56'2 1.9
2014-Oct-27 18:34N 49°11' W 123°53'2 1.8
2014-Oct-27 17:33N 49°10' W 123°56'1 0.6
2014-Oct-27 16:33N 49°10' W 123°55'2 2.3
2014-Oct-27 15:34N 49°11' W 123°52'0 0.0
2014-Oct-27 14:34N 49°11' W 123°52'1 0.5
2014-Oct-27 13:33N 49°11' W 123°52'0 0.0
2014-Oct-27 12:33N 49°11' W 123°52'1 0.6
2014-Oct-27 11:33N 49°11' W 123°52'0 0.0
2014-Oct-27 10:33N 49°11' W 123°52'0 0.0
2014-Oct-27 09:33N 49°11' W 123°52'0 0.0
2014-Oct-27 08:33N 49°11' W 123°52'0 0.0
2014-Oct-27 07:33N 49°11' W 123°52'0 0.0
2014-Oct-27 06:33N 49°11' W 123°52'2 2.5
2014-Oct-27 05:33N 49°10' W 123°55'2 2.5
2014-Oct-27 04:34N 49°11' W 123°52'1 1.4
2014-Oct-27 03:33N 49°11' W 123°54'0 0.4
2014-Oct-27 02:33N 49°11' W 123°53'1 1.0
2014-Oct-27 01:33N 49°11' W 123°52'0 0.0
2014-Oct-27 00:33N 49°11' W 123°52'1 1.2
2014-Oct-26 23:33N 49°10' W 123°53'2 1.7
2014-Oct-26 22:34N 49°10' W 123°56'3 2.9
2014-Oct-26 21:33N 49°11' W 123°52'2 2.1
2014-Oct-26 20:34N 49°10' W 123°55'2 1.7
2014-Oct-26 19:33N 49°11' W 123°52'0 0.4
2014-Oct-26 18:33N 49°11' W 123°52'3 2.9
2014-Oct-26 17:33N 49°10' W 123°56'2 1.8
2014-Oct-26 16:28N 49°11' W 123°53'0 0.4
2014-Oct-26 15:22N 49°11' W 123°52'2 1.9
2014-Oct-26 14:05N 49°10' W 123°56'3 0.8
2014-Oct-26 10:28N 49°11' W 123°52'0 0.0
2014-Oct-26 09:22N 49°11' W 123°52'0 0.0
2014-Oct-26 08:28N 49°11' W 123°52'0 0.0
2014-Oct-26 07:16N 49°11' W 123°52'0 0.0
2014-Oct-26 06:25N 49°11' W 123°52'0 0.0
2014-Oct-26 05:29N 49°11' W 123°52'0 0.0
2014-Oct-26 04:31N 49°11' W 123°52'1 1.1
2014-Oct-26 03:33N 49°11' W 123°53'0 0.1
2014-Oct-26 02:33N 49°11' W 123°53'1 0.9
2014-Oct-26 01:33N 49°11' W 123°52'0 0.0
2014-Oct-26 00:22N 49°11' W 123°52'1 1.4
2014-Oct-25 23:33N 49°10' W 123°53'2 1.7
2014-Oct-25 22:30N 49°10' W 123°56'1 0.6
2014-Oct-25 20:33N 49°10' W 123°54'1 1.1
2014-Oct-25 19:33N 49°11' W 123°53'1 0.7
2014-Oct-25 18:29N 49°11' W 123°52'3 2.3
2014-Oct-25 17:15N 49°10' W 123°56'3 3.6
2014-Oct-25 16:33N 49°11' W 123°52'0 0.4
2014-Oct-25 15:30N 49°11' W 123°52'0 0.0
2014-Oct-25 14:24N 49°11' W 123°52'0 0.5
2014-Oct-25 13:33N 49°11' W 123°52'0 0.4
2014-Oct-25 12:26N 49°11' W 123°52'0 0.0
2014-Oct-25 10:31N 49°11' W 123°52'0 0.0
2014-Oct-25 09:33N 49°11' W 123°52'0 0.0
2014-Oct-25 08:29N 49°11' W 123°52'0 0.0
2014-Oct-25 07:24N 49°11' W 123°52'0 0.0
2014-Oct-25 06:31N 49°11' W 123°52'0 0.0
2014-Oct-25 05:33N 49°11' W 123°52'0 0.0
2014-Oct-25 04:33N 49°11' W 123°52'3 2.8
2014-Oct-25 03:33N 49°10' W 123°56'0 0.0
2014-Oct-25 02:33N 49°10' W 123°56'1 0.9
2014-Oct-25 01:33N 49°10' W 123°54'2 1.9
2014-Oct-25 00:33N 49°11' W 123°52'0 0.1
2014-Oct-24 23:33N 49°11' W 123°52'3 2.8
2014-Oct-24 22:33N 49°10' W 123°56'3 2.7
2014-Oct-24 21:31N 49°11' W 123°52'3 3.0
2014-Oct-24 20:33N 49°10' W 123°56'0 0.0
2014-Oct-24 19:22N 49°10' W 123°56'1 1.8
2014-Oct-24 18:33N 49°10' W 123°54'1 1.3
2014-Oct-24 17:28N 49°10' W 123°56'0 0.4
2014-Oct-24 16:33N 49°10' W 123°55'2 2.2
2014-Oct-24 15:33N 49°11' W 123°52'0 0.3
2014-Oct-24 14:24N 49°11' W 123°52'0 0.5
2014-Oct-24 13:33N 49°11' W 123°52'0 0.3
2014-Oct-24 12:31N 49°11' W 123°52'0 0.0
2014-Oct-24 06:24N 49°11' W 123°52'0 0.0
2014-Oct-24 05:26N 49°11' W 123°52'0 0.0
2014-Oct-24 04:33N 49°11' W 123°52'1 1.0
2014-Oct-24 03:33N 49°11' W 123°53'0 0.3
2014-Oct-24 02:32N 49°10' W 123°54'1 0.7
2014-Oct-24 01:33N 49°11' W 123°53'1 0.6
2014-Oct-24 00:33N 49°11' W 123°52'1 0.7
2014-Oct-23 23:33N 49°11' W 123°53'2 2.1
2014-Oct-23 22:31N 49°10' W 123°56'3 2.0
2014-Oct-23 21:10N 49°11' W 123°52'3 4.5
2014-Oct-23 20:33N 49°10' W 123°56'0 0.0
2014-Oct-23 19:33N 49°10' W 123°56'2 1.5
2014-Oct-23 18:32N 49°10' W 123°54'1 1.4
2014-Oct-23 17:28N 49°10' W 123°56'0 0.1
2014-Oct-23 16:14N 49°10' W 123°56'2 2.2
2014-Oct-23 15:33N 49°11' W 123°53'0 0.4
2014-Oct-23 14:27N 49°11' W 123°53'0 0.2
2014-Oct-23 13:14N 49°11' W 123°53'1 0.1
2014-Oct-23 06:23N 49°11' W 123°52'3 3.4
2014-Oct-23 05:33N 49°10' W 123°56'1 0.4
2014-Oct-23 03:34N 49°10' W 123°55'0 0.4
2014-Oct-23 02:33N 49°10' W 123°55'1 0.9
2014-Oct-23 01:33N 49°10' W 123°54'1 1.0
2014-Oct-23 00:33N 49°11' W 123°53'1 0.6
2014-Oct-22 23:23N 49°11' W 123°52'3 3.0
2014-Oct-22 22:33N 49°10' W 123°55'3 2.3
2014-Oct-22 21:28N 49°11' W 123°52'1 1.4
2014-Oct-22 20:33N 49°10' W 123°53'2 1.6
2014-Oct-22 19:32N 49°10' W 123°56'1 1.3
2014-Oct-22 18:33N 49°10' W 123°54'1 1.3
2014-Oct-22 17:33N 49°10' W 123°56'0 0.0
2014-Oct-22 16:25N 49°10' W 123°56'3 2.8
2014-Oct-22 15:31N 49°11' W 123°52'0 0.0
2014-Oct-22 14:21N 49°11' W 123°52'0 0.3
2014-Oct-22 13:15N 49°11' W 123°53'0 0.3
2014-Oct-22 12:33N 49°11' W 123°52'0 0.1
2014-Oct-22 06:28N 49°11' W 123°52'0 0.0
2014-Oct-22 05:29N 49°11' W 123°52'0 0.0
2014-Oct-22 04:33N 49°11' W 123°52'1 0.9
2014-Oct-22 03:33N 49°11' W 123°53'0 0.2
2014-Oct-22 02:32N 49°11' W 123°53'1 0.6
2014-Oct-22 01:33N 49°11' W 123°52'0 0.0
2014-Oct-22 00:24N 49°11' W 123°52'1 1.2
2014-Oct-21 23:33N 49°11' W 123°53'2 1.9
2014-Oct-21 22:33N 49°10' W 123°56'3 2.5
2014-Oct-21 21:23N 49°11' W 123°52'3 3.3
2014-Oct-21 20:33N 49°10' W 123°56'0 0.2
2014-Oct-21 19:33N 49°10' W 123°56'1 1.3
2014-Oct-21 18:33N 49°10' W 123°54'1 1.3
2014-Oct-21 17:33N 49°10' W 123°56'0 0.4
2014-Oct-21 16:33N 49°10' W 123°55'2 2.0
2014-Oct-21 15:33N 49°11' W 123°52'0 0.2
2014-Oct-21 14:23N 49°11' W 123°52'0 0.1
2014-Oct-21 13:33N 49°11' W 123°52'0 0.1
2014-Oct-21 12:33N 49°11' W 123°52'0 0.1
2014-Oct-21 06:26N 49°11' W 123°52'  
Track history (hours):
 
Tides and Currents Weather Stations Pressure Air Temp Water Temp Dewpoint Dewpoint Depression Visibility Wind Speed Wind Dir Waves Ship Positions

Quinsam

Last reported at 2014-Oct-31 06:25 UTC. Time now 2014-Oct-31 07:02 UTC.
Position N 49°11' W 123°52'.

Length 88 m; draft 1.5 m.

Type: Ship. MMSI: 316001266.

Date/timePositionNaut miles runAvg speedWind from/ knotsBaromVisibWave heightAir tempDewpointWater temp
2014-Oct-31 06:25N 49°11' W 123°52'0 0.2
2014-Oct-31 05:32N 49°11' W 123°52'1 0.7
2014-Oct-31 03:33N 49°10' W 123°54'0 0.5
2014-Oct-31 02:33N 49°11' W 123°53'0 0.2
2014-Oct-31 01:27N 49°11' W 123°53'0 0.0
2014-Oct-31 00:21N 49°11' W 123°53'0 0.2
2014-Oct-30 23:34N 49°11' W 123°53'2 2.0
2014-Oct-30 22:30N 49°10' W 123°56'2 1.7
2014-Oct-30 21:19N 49°11' W 123°53'0 0.4
2014-Oct-30 20:32N 49°11' W 123°53'2 2.3
2014-Oct-30 19:33N 49°10' W 123°56'1 0.5
2014-Oct-30 18:33N 49°10' W 123°55'1 0.5
2014-Oct-30 17:33N 49°10' W 123°56'0 0.0
2014-Oct-30 16:33N 49°10' W 123°56'2 2.2
2014-Oct-30 15:33N 49°11' W 123°53'1 0.7
2014-Oct-30 14:32N 49°11' W 123°52'1 0.6
2014-Oct-30 13:33N 49°11' W 123°53'0 0.1
2014-Oct-30 12:33N 49°11' W 123°52'1 0.2
2014-Oct-30 10:07N 49°11' W 123°52'0 0.0
2014-Oct-30 09:19N 49°11' W 123°52'0 0.0
2014-Oct-30 08:31N 49°11' W 123°52'0 0.0
2014-Oct-30 07:19N 49°11' W 123°52'0 0.0
2014-Oct-30 06:33N 49°11' W 123°52'3 2.7
2014-Oct-30 05:28N 49°10' W 123°56'3 3.2
2014-Oct-30 04:33N 49°11' W 123°52'1 1.5
2014-Oct-30 03:32N 49°11' W 123°54'0 0.2
2014-Oct-30 02:34N 49°10' W 123°54'1 1.4
2014-Oct-30 01:33N 49°11' W 123°52'0 0.0
2014-Oct-30 00:34N 49°11' W 123°52'1 1.1
2014-Oct-29 23:34N 49°11' W 123°53'2 1.7
2014-Oct-29 22:30N 49°10' W 123°56'3 2.9
2014-Oct-29 21:29N 49°11' W 123°52'1 1.0
2014-Oct-29 20:33N 49°11' W 123°53'2 1.5
2014-Oct-29 19:20N 49°10' W 123°56'2 2.0
2014-Oct-29 18:31N 49°10' W 123°53'2 1.5
2014-Oct-29 17:25N 49°10' W 123°56'0 0.1
2014-Oct-29 16:11N 49°10' W 123°56'2 2.6
2014-Oct-29 15:29N 49°11' W 123°53'0 0.3
2014-Oct-29 14:17N 49°11' W 123°52'0 0.4
2014-Oct-29 13:11N 49°11' W 123°53'0 0.8
2014-Oct-29 12:33N 49°11' W 123°52'0 0.0
2014-Oct-29 06:21N 49°11' W 123°53'0 0.2
2014-Oct-29 05:21N 49°11' W 123°52'1 0.7
2014-Oct-29 03:30N 49°10' W 123°54'1 0.9
2014-Oct-29 02:33N 49°11' W 123°53'0 0.3
2014-Oct-29 01:22N 49°11' W 123°54'1 0.6
2014-Oct-29 00:17N 49°11' W 123°53'1 0.8
2014-Oct-28 23:33N 49°10' W 123°53'2 1.6
2014-Oct-28 22:33N 49°10' W 123°56'3 2.9
2014-Oct-28 21:33N 49°11' W 123°52'1 0.7
2014-Oct-28 20:34N 49°11' W 123°53'2 2.2
2014-Oct-28 19:33N 49°10' W 123°56'1 0.7
2014-Oct-28 18:34N 49°10' W 123°55'1 0.7
2014-Oct-28 17:33N 49°10' W 123°56'0 0.0
2014-Oct-28 16:33N 49°10' W 123°56'2 1.9
2014-Oct-28 15:34N 49°11' W 123°53'1 1.1
2014-Oct-28 14:33N 49°11' W 123°52'0 0.5
2014-Oct-28 13:33N 49°11' W 123°52'0 0.2
2014-Oct-28 12:34N 49°11' W 123°53'1 0.6
2014-Oct-28 11:32N 49°11' W 123°52'0 0.0
2014-Oct-28 10:32N 49°11' W 123°52'0 0.0
2014-Oct-28 09:32N 49°11' W 123°52'0 0.0
2014-Oct-28 08:32N 49°11' W 123°52'0 0.0
2014-Oct-28 07:32N 49°11' W 123°52'0 0.0
2014-Oct-28 06:32N 49°11' W 123°52'0 0.0
2014-Oct-28 05:33N 49°11' W 123°52'0 0.0
2014-Oct-28 04:33N 49°11' W 123°52'1 1.4
2014-Oct-28 03:33N 49°10' W 123°54'0 0.3
2014-Oct-28 02:33N 49°11' W 123°53'1 1.0
2014-Oct-28 01:33N 49°11' W 123°52'0 0.0
2014-Oct-28 00:33N 49°11' W 123°52'1 0.7
2014-Oct-27 23:33N 49°11' W 123°53'2 2.2
2014-Oct-27 22:33N 49°10' W 123°56'3 2.9
2014-Oct-27 21:34N 49°11' W 123°52'3 2.9
2014-Oct-27 20:34N 49°10' W 123°56'0 0.0
2014-Oct-27 19:33N 49°10' W 123°56'2 1.9
2014-Oct-27 18:34N 49°11' W 123°53'2 1.8
2014-Oct-27 17:33N 49°10' W 123°56'1 0.6
2014-Oct-27 16:33N 49°10' W 123°55'2 2.3
2014-Oct-27 15:34N 49°11' W 123°52'0 0.0
2014-Oct-27 14:34N 49°11' W 123°52'1 0.5
2014-Oct-27 13:33N 49°11' W 123°52'0 0.0
2014-Oct-27 12:33N 49°11' W 123°52'1 0.6
2014-Oct-27 11:33N 49°11' W 123°52'0 0.0
2014-Oct-27 10:33N 49°11' W 123°52'0 0.0
2014-Oct-27 09:33N 49°11' W 123°52'0 0.0
2014-Oct-27 08:33N 49°11' W 123°52'0 0.0
2014-Oct-27 07:33N 49°11' W 123°52'0 0.0
2014-Oct-27 06:33N 49°11' W 123°52'2 2.5
2014-Oct-27 05:33N 49°10' W 123°55'2 2.5
2014-Oct-27 04:34N 49°11' W 123°52'1 1.4
2014-Oct-27 03:33N 49°11' W 123°54'0 0.4
2014-Oct-27 02:33N 49°11' W 123°53'1 1.0
2014-Oct-27 01:33N 49°11' W 123°52'0 0.0
2014-Oct-27 00:33N 49°11' W 123°52'1 1.2
2014-Oct-26 23:33N 49°10' W 123°53'2 1.7
2014-Oct-26 22:34N 49°10' W 123°56'3 2.9
2014-Oct-26 21:33N 49°11' W 123°52'2 2.1
2014-Oct-26 20:34N 49°10' W 123°55'2 1.7
2014-Oct-26 19:33N 49°11' W 123°52'0 0.4
2014-Oct-26 18:33N 49°11' W 123°52'3 2.9
2014-Oct-26 17:33N 49°10' W 123°56'2 1.8
2014-Oct-26 16:28N 49°11' W 123°53'0 0.4
2014-Oct-26 15:22N 49°11' W 123°52'2 1.9
2014-Oct-26 14:05N 49°10' W 123°56'3 0.8
2014-Oct-26 10:28N 49°11' W 123°52'0 0.0
2014-Oct-26 09:22N 49°11' W 123°52'0 0.0
2014-Oct-26 08:28N 49°11' W 123°52'0 0.0
2014-Oct-26 07:16N 49°11' W 123°52'0 0.0
2014-Oct-26 06:25N 49°11' W 123°52'0 0.0
2014-Oct-26 05:29N 49°11' W 123°52'0 0.0
2014-Oct-26 04:31N 49°11' W 123°52'1 1.1
2014-Oct-26 03:33N 49°11' W 123°53'0 0.1
2014-Oct-26 02:33N 49°11' W 123°53'1 0.9
2014-Oct-26 01:33N 49°11' W 123°52'0 0.0
2014-Oct-26 00:22N 49°11' W 123°52'1 1.4
2014-Oct-25 23:33N 49°10' W 123°53'2 1.7
2014-Oct-25 22:30N 49°10' W 123°56'1 0.6
2014-Oct-25 20:33N 49°10' W 123°54'1 1.1
2014-Oct-25 19:33N 49°11' W 123°53'1 0.7
2014-Oct-25 18:29N 49°11' W 123°52'3 2.3
2014-Oct-25 17:15N 49°10' W 123°56'3 3.6
2014-Oct-25 16:33N 49°11' W 123°52'0 0.4
2014-Oct-25 15:30N 49°11' W 123°52'0 0.0
2014-Oct-25 14:24N 49°11' W 123°52'0 0.5
2014-Oct-25 13:33N 49°11' W 123°52'0 0.4
2014-Oct-25 12:26N 49°11' W 123°52'0 0.0
2014-Oct-25 10:31N 49°11' W 123°52'0 0.0
2014-Oct-25 09:33N 49°11' W 123°52'0 0.0
2014-Oct-25 08:29N 49°11' W 123°52'0 0.0
2014-Oct-25 07:24N 49°11' W 123°52'0 0.0
2014-Oct-25 06:31N 49°11' W 123°52'0 0.0
2014-Oct-25 05:33N 49°11' W 123°52'0 0.0
2014-Oct-25 04:33N 49°11' W 123°52'3 2.8
2014-Oct-25 03:33N 49°10' W 123°56'0 0.0
2014-Oct-25 02:33N 49°10' W 123°56'1 0.9
2014-Oct-25 01:33N 49°10' W 123°54'2 1.9
2014-Oct-25 00:33N 49°11' W 123°52'0 0.1
2014-Oct-24 23:33N 49°11' W 123°52'3 2.8
2014-Oct-24 22:33N 49°10' W 123°56'3 2.7
2014-Oct-24 21:31N 49°11' W 123°52'3 3.0
2014-Oct-24 20:33N 49°10' W 123°56'0 0.0
2014-Oct-24 19:22N 49°10' W 123°56'1 1.8
2014-Oct-24 18:33N 49°10' W 123°54'1 1.3
2014-Oct-24 17:28N 49°10' W 123°56'0 0.4
2014-Oct-24 16:33N 49°10' W 123°55'2 2.2
2014-Oct-24 15:33N 49°11' W 123°52'0 0.3
2014-Oct-24 14:24N 49°11' W 123°52'0 0.5
2014-Oct-24 13:33N 49°11' W 123°52'0 0.3
2014-Oct-24 12:31N 49°11' W 123°52'0 0.0
2014-Oct-24 06:24N 49°11' W 123°52'0 0.0
2014-Oct-24 05:26N 49°11' W 123°52'0 0.0
2014-Oct-24 04:33N 49°11' W 123°52'1 1.0
2014-Oct-24 03:33N 49°11' W 123°53'0 0.3
2014-Oct-24 02:32N 49°10' W 123°54'1 0.7
2014-Oct-24 01:33N 49°11' W 123°53'1 0.6
2014-Oct-24 00:33N 49°11' W 123°52'1 0.7
2014-Oct-23 23:33N 49°11' W 123°53'2 2.1
2014-Oct-23 22:31N 49°10' W 123°56'3 2.0
2014-Oct-23 21:10N 49°11' W 123°52'3 4.5
2014-Oct-23 20:33N 49°10' W 123°56'0 0.0
2014-Oct-23 19:33N 49°10' W 123°56'2 1.5
2014-Oct-23 18:32N 49°10' W 123°54'1 1.4
2014-Oct-23 17:28N 49°10' W 123°56'0 0.1
2014-Oct-23 16:14N 49°10' W 123°56'2 2.2
2014-Oct-23 15:33N 49°11' W 123°53'0 0.4
2014-Oct-23 14:27N 49°11' W 123°53'0 0.2
2014-Oct-23 13:14N 49°11' W 123°53'1 0.1
2014-Oct-23 06:23N 49°11' W 123°52'3 3.4
2014-Oct-23 05:33N 49°10' W 123°56'1 0.4
2014-Oct-23 03:34N 49°10' W 123°55'0 0.4
2014-Oct-23 02:33N 49°10' W 123°55'1 0.9
2014-Oct-23 01:33N 49°10' W 123°54'1 1.0
2014-Oct-23 00:33N 49°11' W 123°53'1 0.6
2014-Oct-22 23:23N 49°11' W 123°52'3 3.0
2014-Oct-22 22:33N 49°10' W 123°55'3 2.3
2014-Oct-22 21:28N 49°11' W 123°52'1 1.4
2014-Oct-22 20:33N 49°10' W 123°53'2 1.6
2014-Oct-22 19:32N 49°10' W 123°56'1 1.3
2014-Oct-22 18:33N 49°10' W 123°54'1 1.3
2014-Oct-22 17:33N 49°10' W 123°56'0 0.0
2014-Oct-22 16:25N 49°10' W 123°56'3 2.8
2014-Oct-22 15:31N 49°11' W 123°52'0 0.0
2014-Oct-22 14:21N 49°11' W 123°52'0 0.3
2014-Oct-22 13:15N 49°11' W 123°53'0 0.3
2014-Oct-22 12:33N 49°11' W 123°52'0 0.1
2014-Oct-22 06:28N 49°11' W 123°52'0 0.0
2014-Oct-22 05:29N 49°11' W 123°52'0 0.0
2014-Oct-22 04:33N 49°11' W 123°52'1 0.9
2014-Oct-22 03:33N 49°11' W 123°53'0 0.2
2014-Oct-22 02:32N 49°11' W 123°53'1 0.6
2014-Oct-22 01:33N 49°11' W 123°52'0 0.0
2014-Oct-22 00:24N 49°11' W 123°52'1 1.2
2014-Oct-21 23:33N 49°11' W 123°53'2 1.9
2014-Oct-21 22:33N 49°10' W 123°56'3 2.5
2014-Oct-21 21:23N 49°11' W 123°52'3 3.3
2014-Oct-21 20:33N 49°10' W 123°56'0 0.2
2014-Oct-21 19:33N 49°10' W 123°56'1 1.3
2014-Oct-21 18:33N 49°10' W 123°54'1 1.3
2014-Oct-21 17:33N 49°10' W 123°56'0 0.4
2014-Oct-21 16:33N 49°10' W 123°55'2 2.0
2014-Oct-21 15:33N 49°11' W 123°52'0 0.2
2014-Oct-21 14:23N 49°11' W 123°52'0 0.1
2014-Oct-21 13:33N 49°11' W 123°52'0 0.1
2014-Oct-21 12:33N 49°11' W 123°52'0 0.1
2014-Oct-21 06:26N 49°11' W 123°52'  

Dump ship's entire track history